createdAt,value
2024-02-29T00:00:14.465Z,4.10
2024-02-29T00:01:17.460Z,4.10
2024-02-29T00:02:19.453Z,4.10
2024-02-29T00:03:22.529Z,4.10
2024-02-29T00:04:25.705Z,4.10
2024-02-29T00:05:28.684Z,4.10
2024-02-29T00:06:30.787Z,4.10
2024-02-29T00:07:33.863Z,4.10
2024-02-29T00:08:35.784Z,4.10
2024-02-29T00:09:37.815Z,4.10
2024-02-29T00:10:42.093Z,4.10
2024-02-29T00:11:44.158Z,4.10
2024-02-29T00:12:47.122Z,4.10
2024-02-29T00:13:49.102Z,4.00
2024-02-29T00:14:51.656Z,4.00
2024-02-29T00:15:55.460Z,4.00
2024-02-29T00:16:59.279Z,4.10
2024-02-29T00:18:03.286Z,4.00
2024-02-29T00:19:05.277Z,4.00
2024-02-29T00:20:10.441Z,4.00
2024-02-29T00:21:12.616Z,4.00
2024-02-29T00:22:15.630Z,4.00
2024-02-29T00:23:17.599Z,4.00
2024-02-29T00:24:20.464Z,4.00
2024-02-29T00:25:22.500Z,4.00
2024-02-29T00:26:27.473Z,4.00
2024-02-29T00:27:29.438Z,3.90
2024-02-29T00:28:32.704Z,3.90
2024-02-29T00:29:35.680Z,3.90
2024-02-29T00:30:37.738Z,3.90
2024-02-29T00:31:44.080Z,3.90
2024-02-29T00:32:46.018Z,3.80
2024-02-29T00:33:48.032Z,3.90
2024-02-29T00:34:51.210Z,3.80
2024-02-29T00:36:04.510Z,3.80
2024-02-29T00:37:11.948Z,3.80
2024-02-29T00:38:13.983Z,3.80
2024-02-29T00:39:15.945Z,3.80
2024-02-29T00:40:19.004Z,3.70
2024-02-29T00:41:21.060Z,3.80
2024-02-29T00:42:25.307Z,3.80
2024-02-29T00:43:27.340Z,3.80
2024-02-29T00:44:30.310Z,3.80
2024-02-29T00:45:32.239Z,3.80
2024-02-29T00:46:34.363Z,3.80
2024-02-29T00:47:37.319Z,3.80
2024-02-29T00:48:39.551Z,3.80
2024-02-29T00:49:42.557Z,3.70
2024-02-29T00:50:45.469Z,3.70
2024-02-29T00:51:47.482Z,3.70
2024-02-29T00:52:50.462Z,3.70
2024-02-29T00:53:52.540Z,3.70
2024-02-29T00:54:55.717Z,3.70
2024-02-29T00:55:57.762Z,3.70
2024-02-29T00:57:00.672Z,3.70
2024-02-29T00:58:04.062Z,3.70
2024-02-29T00:59:07.201Z,3.70
2024-02-29T01:00:12.789Z,3.70
2024-02-29T01:01:15.804Z,3.70
2024-02-29T01:02:17.909Z,3.70
2024-02-29T01:03:20.810Z,3.60
2024-02-29T01:04:22.767Z,3.60
2024-02-29T01:05:25.755Z,3.60
2024-02-29T01:06:27.675Z,3.60
2024-02-29T01:07:29.582Z,3.60
2024-02-29T01:08:32.625Z,3.60
2024-02-29T01:09:34.792Z,3.60
2024-02-29T01:10:37.824Z,3.60
2024-02-29T01:11:39.787Z,3.60
2024-02-29T01:12:43.818Z,3.60
2024-02-29T01:13:47.252Z,3.60
2024-02-29T01:14:50.141Z,3.60
2024-02-29T01:15:52.307Z,3.70
2024-02-29T01:16:57.358Z,3.70
2024-02-29T01:17:59.382Z,3.70
2024-02-29T01:19:02.856Z,3.70
2024-02-29T01:20:06.070Z,3.70
2024-02-29T01:21:09.069Z,3.60
2024-02-29T01:22:11.024Z,3.60
2024-02-29T01:23:13.979Z,3.60
2024-02-29T01:24:16.055Z,3.60
2024-02-29T01:25:19.104Z,3.60
2024-02-29T01:26:21.027Z,3.50
2024-02-29T01:27:22.931Z,3.50
2024-02-29T01:28:25.833Z,3.50
2024-02-29T01:29:29.236Z,3.40
2024-02-29T01:30:32.219Z,3.40
2024-02-29T01:31:34.168Z,3.40
2024-02-29T01:32:38.033Z,3.30
2024-02-29T01:33:40.235Z,3.30
2024-02-29T01:34:43.210Z,3.30
2024-02-29T01:35:45.303Z,3.30
2024-02-29T01:36:48.294Z,3.30
2024-02-29T01:37:50.554Z,3.30
2024-02-29T01:38:53.513Z,3.30
2024-02-29T01:39:55.523Z,3.30
2024-02-29T01:40:58.514Z,3.30
2024-02-29T01:42:00.489Z,3.30
2024-02-29T01:43:04.053Z,3.20
2024-02-29T01:44:06.063Z,3.20
2024-02-29T01:45:10.910Z,3.20
2024-02-29T01:46:13.565Z,3.20
2024-02-29T01:47:16.553Z,3.20
2024-02-29T01:48:18.706Z,3.20
2024-02-29T01:49:22.402Z,3.10
2024-02-29T01:50:25.146Z,3.10
2024-02-29T01:51:28.136Z,3.10
2024-02-29T01:52:33.070Z,3.10
2024-02-29T01:53:36.025Z,3.00
2024-02-29T01:54:38.370Z,3.00
2024-02-29T01:55:41.460Z,3.00
2024-02-29T01:56:43.463Z,3.00
2024-02-29T01:57:46.502Z,3.00
2024-02-29T01:58:48.996Z,3.00
2024-02-29T01:59:52.108Z,3.00
2024-02-29T02:00:55.464Z,3.00
2024-02-29T02:01:58.685Z,3.00
2024-02-29T02:03:00.770Z,3.10
2024-02-29T02:04:03.984Z,3.00
2024-02-29T02:05:06.236Z,3.00
2024-02-29T02:06:09.119Z,3.00
2024-02-29T02:07:11.167Z,3.00
2024-02-29T02:08:14.475Z,3.00
2024-02-29T02:09:16.623Z,3.00
2024-02-29T02:10:19.720Z,3.00
2024-02-29T02:11:21.801Z,3.00
2024-02-29T02:12:24.750Z,3.00
2024-02-29T02:13:26.783Z,3.00
2024-02-29T02:14:30.150Z,3.00
2024-02-29T02:15:32.095Z,3.00
2024-02-29T02:16:36.525Z,3.00
2024-02-29T02:17:38.459Z,3.00
2024-02-29T02:18:41.466Z,3.00
2024-02-29T02:19:43.597Z,3.00
2024-02-29T02:20:46.981Z,3.00
2024-02-29T02:21:50.004Z,3.00
2024-02-29T02:22:51.939Z,3.00
2024-02-29T02:23:54.842Z,3.00
2024-02-29T02:24:57.190Z,3.00
2024-02-29T02:26:01.788Z,3.00
2024-02-29T02:27:04.422Z,3.00
2024-02-29T02:28:07.582Z,3.00
2024-02-29T02:29:09.548Z,3.00
2024-02-29T02:30:12.312Z,3.00
2024-02-29T02:31:15.235Z,3.10
2024-02-29T02:32:17.235Z,3.00
2024-02-29T02:33:19.616Z,3.10
2024-02-29T02:34:22.549Z,3.10
2024-02-29T02:35:24.586Z,3.10
2024-02-29T02:36:28.823Z,3.10
2024-02-29T02:37:31.193Z,3.10
2024-02-29T02:38:34.082Z,3.20
2024-02-29T02:39:36.025Z,3.20
2024-02-29T02:40:38.172Z,3.20
2024-02-29T02:41:41.880Z,3.20
2024-02-29T02:42:43.803Z,3.10
2024-02-29T02:43:49.674Z,3.10
2024-02-29T02:44:54.432Z,3.10
2024-02-29T02:45:56.478Z,3.10
2024-02-29T02:46:59.486Z,3.10
2024-02-29T02:48:01.514Z,3.00
2024-02-29T02:49:05.302Z,3.00
2024-02-29T02:50:07.683Z,3.00
2024-02-29T02:51:10.881Z,2.90
2024-02-29T02:52:14.225Z,2.90
2024-02-29T02:53:17.276Z,2.90
2024-02-29T02:54:19.255Z,2.90
2024-02-29T02:55:22.254Z,2.90
2024-02-29T02:56:24.242Z,2.90
2024-02-29T02:57:27.185Z,2.80
2024-02-29T02:58:29.133Z,2.80
2024-02-29T02:59:31.037Z,2.80
2024-02-29T03:00:35.057Z,2.80
2024-02-29T03:01:37.772Z,2.80
2024-02-29T03:02:40.690Z,2.80
2024-02-29T03:03:43.649Z,2.80
2024-02-29T03:04:45.592Z,2.80
2024-02-29T03:05:48.487Z,2.80
2024-02-29T03:06:50.544Z,2.80
2024-02-29T03:07:54.840Z,2.70
2024-02-29T03:08:56.782Z,2.70
2024-02-29T03:09:59.808Z,2.70
2024-02-29T03:11:01.804Z,2.70
2024-02-29T03:12:05.128Z,2.70
2024-02-29T03:13:07.356Z,2.60
2024-02-29T03:14:10.335Z,2.60
2024-02-29T03:15:12.385Z,2.60
2024-02-29T03:16:20.997Z,2.60
2024-02-29T03:17:24.030Z,2.60
2024-02-29T03:18:25.996Z,2.60
2024-02-29T03:19:28.047Z,2.60
2024-02-29T03:20:30.988Z,2.50
2024-02-29T03:21:33.852Z,2.60
2024-02-29T03:22:36.767Z,2.60
2024-02-29T03:23:40.125Z,2.60
2024-02-29T03:24:44.486Z,2.60
2024-02-29T03:25:46.859Z,2.60
2024-02-29T03:26:49.871Z,2.60
2024-02-29T03:27:52.902Z,2.60
2024-02-29T03:28:55.859Z,2.60
2024-02-29T03:30:00.259Z,2.50
2024-02-29T03:31:03.751Z,2.60
2024-02-29T03:32:05.962Z,2.50
2024-02-29T03:33:09.112Z,2.50
2024-02-29T03:34:11.168Z,2.50
2024-02-29T03:35:15.347Z,2.50
2024-02-29T03:36:17.489Z,2.50
2024-02-29T03:37:20.520Z,2.50
2024-02-29T03:38:22.553Z,2.60
2024-02-29T03:39:26.761Z,2.60
2024-02-29T03:40:29.268Z,2.60
2024-02-29T03:41:32.254Z,2.60
2024-02-29T03:42:34.285Z,2.60
2024-02-29T03:43:37.209Z,2.60
2024-02-29T03:44:42.474Z,2.60
2024-02-29T03:45:45.657Z,2.60
2024-02-29T03:46:47.565Z,2.60
2024-02-29T03:47:50.672Z,2.60
2024-02-29T03:48:52.611Z,2.70
2024-02-29T03:49:55.640Z,2.70
2024-02-29T03:50:57.631Z,2.70
2024-02-29T03:52:00.686Z,2.70
2024-02-29T03:53:02.626Z,2.70
2024-02-29T03:54:05.551Z,2.70
2024-02-29T03:55:09.407Z,2.80
2024-02-29T03:56:12.348Z,2.90
2024-02-29T03:57:14.413Z,2.90
2024-02-29T03:58:17.774Z,2.90
2024-02-29T03:59:19.790Z,3.00
2024-02-29T04:00:22.795Z,3.00
2024-02-29T04:01:24.994Z,3.00
2024-02-29T04:02:26.945Z,3.00
2024-02-29T04:03:29.966Z,3.00
2024-02-29T04:04:31.997Z,3.00
2024-02-29T04:05:34.967Z,3.00
2024-02-29T04:06:36.994Z,3.00
2024-02-29T04:07:41.690Z,3.00
2024-02-29T04:08:43.650Z,2.90
2024-02-29T04:09:46.698Z,3.00
2024-02-29T04:10:51.499Z,2.90
2024-02-29T04:11:54.580Z,3.00
2024-02-29T04:12:56.597Z,2.90
2024-02-29T04:13:59.481Z,2.90
2024-02-29T04:15:02.713Z,2.90
2024-02-29T04:16:06.061Z,3.00
2024-02-29T04:17:08.053Z,3.00
2024-02-29T04:18:10.997Z,3.00
2024-02-29T04:19:13.033Z,3.00
2024-02-29T04:20:15.968Z,3.00
2024-02-29T04:21:17.886Z,3.00
2024-02-29T04:22:19.903Z,3.00
2024-02-29T04:23:23.058Z,3.00
2024-02-29T04:24:25.147Z,3.00
2024-02-29T04:25:28.135Z,3.10
2024-02-29T04:26:31.506Z,3.10
2024-02-29T04:27:34.574Z,3.10
2024-02-29T04:28:36.628Z,3.20
2024-02-29T04:29:38.599Z,3.20
2024-02-29T04:30:41.517Z,3.30
2024-02-29T04:31:46.625Z,3.30
2024-02-29T04:32:49.527Z,3.30
2024-02-29T04:33:52.287Z,3.40
2024-02-29T04:34:55.761Z,3.40
2024-02-29T04:35:57.759Z,3.40
2024-02-29T04:37:00.694Z,3.40
2024-02-29T04:38:02.652Z,3.40
2024-02-29T04:39:05.661Z,3.40
2024-02-29T04:40:11.227Z,3.50
2024-02-29T04:41:14.800Z,3.50
2024-02-29T04:42:18.075Z,3.50
2024-02-29T04:43:21.220Z,3.50
2024-02-29T04:44:23.334Z,3.50
2024-02-29T04:45:25.695Z,3.50
2024-02-29T04:46:28.662Z,3.50
2024-02-29T04:47:30.609Z,3.50
2024-02-29T04:48:32.583Z,3.50
2024-02-29T04:49:35.716Z,3.50
2024-02-29T04:50:38.683Z,3.50
2024-02-29T04:51:41.596Z,3.40
2024-02-29T04:52:43.534Z,3.40
2024-02-29T04:53:46.533Z,3.40
2024-02-29T04:54:48.579Z,3.40
2024-02-29T04:55:51.506Z,3.40
2024-02-29T04:56:53.421Z,3.40
2024-02-29T04:57:57.659Z,3.40
2024-02-29T04:58:59.637Z,3.40
2024-02-29T05:00:02.809Z,3.40
2024-02-29T05:01:05.281Z,3.40
2024-02-29T05:02:10.899Z,3.40
2024-02-29T05:03:13.040Z,3.40
2024-02-29T05:04:16.197Z,3.40
2024-02-29T05:05:18.246Z,3.40
2024-02-29T05:06:21.268Z,3.40
2024-02-29T05:07:23.392Z,3.40
2024-02-29T05:08:26.421Z,3.40
2024-02-29T05:09:28.401Z,3.40
2024-02-29T05:10:31.299Z,3.40
2024-02-29T05:11:34.565Z,3.40
2024-02-29T05:12:38.603Z,3.40
2024-02-29T05:13:41.873Z,3.40
2024-02-29T05:14:44.760Z,3.30
2024-02-29T05:15:46.680Z,3.40
2024-02-29T05:16:49.602Z,3.40
2024-02-29T05:17:51.584Z,3.40
2024-02-29T05:18:54.634Z,3.40
2024-02-29T05:19:57.327Z,3.40
2024-02-29T05:21:00.228Z,3.40
2024-02-29T05:22:03.395Z,3.40
2024-02-29T05:23:06.981Z,3.40
2024-02-29T05:24:09.055Z,3.40
2024-02-29T05:25:12.036Z,3.40
2024-02-29T05:26:14.251Z,3.40
2024-02-29T05:27:17.381Z,3.40
2024-02-29T05:28:19.529Z,3.40
2024-02-29T05:29:23.797Z,3.40
2024-02-29T05:30:26.627Z,3.40
2024-02-29T05:31:29.725Z,3.40
2024-02-29T05:32:31.718Z,3.40
2024-02-29T05:33:34.910Z,3.40
2024-02-29T05:34:36.878Z,3.40
2024-02-29T05:35:39.859Z,3.40
2024-02-29T05:36:41.779Z,3.40
2024-02-29T05:37:45.432Z,3.50
2024-02-29T05:38:51.294Z,3.50
2024-02-29T05:39:54.496Z,3.50
2024-02-29T05:40:58.894Z,3.50
2024-02-29T05:42:01.877Z,3.50
2024-02-29T05:43:05.017Z,3.50
2024-02-29T05:44:09.695Z,3.50
2024-02-29T05:45:13.732Z,3.50
2024-02-29T05:46:16.753Z,3.50
2024-02-29T05:47:18.858Z,3.50
2024-02-29T05:48:20.768Z,3.50
2024-02-29T05:49:23.736Z,3.50
2024-02-29T05:50:25.770Z,3.60
2024-02-29T05:51:28.861Z,3.60
2024-02-29T05:52:30.749Z,3.60
2024-02-29T05:53:33.678Z,3.60
2024-02-29T05:54:35.676Z,3.60
2024-02-29T05:55:38.675Z,3.60
2024-02-29T05:56:40.635Z,3.60
2024-02-29T05:57:43.575Z,3.60
2024-02-29T05:58:45.666Z,3.60
2024-02-29T05:59:48.596Z,3.60
2024-02-29T06:00:52.091Z,3.60
2024-02-29T06:01:55.321Z,3.60
2024-02-29T06:02:58.105Z,3.50
2024-02-29T06:04:01.197Z,3.50
2024-02-29T06:05:03.516Z,3.50
2024-02-29T06:06:06.649Z,3.50
2024-02-29T06:07:08.796Z,3.50
2024-02-29T06:08:14.472Z,3.50
2024-02-29T06:09:17.372Z,3.40
2024-02-29T06:10:20.947Z,3.40
2024-02-29T06:11:22.960Z,3.40
2024-02-29T06:12:26.002Z,3.40
2024-02-29T06:13:29.831Z,3.40
2024-02-29T06:14:32.736Z,3.30
2024-02-29T06:15:34.969Z,3.30
2024-02-29T06:16:38.355Z,3.30
2024-02-29T06:17:41.345Z,3.30
2024-02-29T06:18:46.682Z,3.30
2024-02-29T06:19:50.171Z,3.30
2024-02-29T06:20:52.113Z,3.40
2024-02-29T06:21:55.029Z,3.30
2024-02-29T06:22:57.719Z,3.40
2024-02-29T06:24:01.023Z,3.30
2024-02-29T06:25:04.874Z,3.40
2024-02-29T06:26:07.811Z,3.40
2024-02-29T06:27:09.742Z,3.40
2024-02-29T06:28:12.748Z,3.40
2024-02-29T06:29:14.756Z,3.40
2024-02-29T06:30:17.969Z,3.40
2024-02-29T06:31:20.688Z,3.40
2024-02-29T06:32:24.944Z,3.40
2024-02-29T06:33:26.989Z,3.40
2024-02-29T06:34:28.981Z,3.40
2024-02-29T06:35:31.925Z,3.40
2024-02-29T06:36:34.663Z,3.40
2024-02-29T06:37:37.784Z,3.50
2024-02-29T06:38:39.704Z,3.40
2024-02-29T06:39:42.689Z,3.50
2024-02-29T06:40:44.771Z,3.50
2024-02-29T06:41:47.803Z,3.50
2024-02-29T06:42:49.956Z,3.50
2024-02-29T06:43:53.069Z,3.50
2024-02-29T06:44:55.003Z,3.50
2024-02-29T06:46:01.499Z,3.50
2024-02-29T06:47:03.652Z,3.60
2024-02-29T06:48:08.634Z,3.60
2024-02-29T06:49:10.635Z,3.60
2024-02-29T06:50:13.922Z,3.70
2024-02-29T06:51:16.782Z,3.70
2024-02-29T06:52:19.747Z,3.70
2024-02-29T06:53:21.674Z,3.70
2024-02-29T06:54:25.025Z,3.70
2024-02-29T06:55:27.227Z,3.70
2024-02-29T06:56:30.335Z,3.70
2024-02-29T06:57:32.280Z,3.80
2024-02-29T06:58:34.942Z,3.80
2024-02-29T06:59:37.893Z,3.80
2024-02-29T07:00:40.646Z,3.80
2024-02-29T07:01:43.664Z,3.80
2024-02-29T07:02:45.779Z,3.80
2024-02-29T07:03:50.313Z,3.90
2024-02-29T07:04:52.311Z,4.00
2024-02-29T07:05:56.176Z,4.10
2024-02-29T07:06:58.266Z,4.10
2024-02-29T07:08:02.419Z,4.10
2024-02-29T07:09:04.703Z,4.20
2024-02-29T07:10:08.896Z,4.30
2024-02-29T07:11:13.107Z,4.30
2024-02-29T07:12:16.396Z,4.40
2024-02-29T07:13:18.416Z,4.40
2024-02-29T07:14:21.427Z,4.50
2024-02-29T07:15:23.628Z,4.50
2024-02-29T07:16:27.337Z,4.50
2024-02-29T07:17:30.353Z,4.60
2024-02-29T07:18:32.410Z,4.70
2024-02-29T07:19:36.697Z,4.70
2024-02-29T07:20:38.680Z,4.80
2024-02-29T07:21:42.526Z,4.80
2024-02-29T07:22:47.041Z,4.80
2024-02-29T07:23:49.964Z,4.90
2024-02-29T07:24:51.934Z,5.00
2024-02-29T07:25:54.575Z,5.00
2024-02-29T07:26:57.748Z,5.10
2024-02-29T07:27:59.823Z,5.20
2024-02-29T07:29:02.750Z,5.20
2024-02-29T07:30:05.992Z,5.20
2024-02-29T07:31:09.117Z,5.20
2024-02-29T07:32:11.102Z,5.30
2024-02-29T07:33:14.057Z,5.40
2024-02-29T07:34:17.562Z,5.40
2024-02-29T07:35:21.859Z,5.50
2024-02-29T07:36:23.886Z,5.60
2024-02-29T07:37:26.929Z,5.70
2024-02-29T07:38:28.896Z,5.80
2024-02-29T07:39:31.849Z,5.80
2024-02-29T07:40:33.841Z,5.90
2024-02-29T07:41:36.902Z,6.00
2024-02-29T07:42:39.529Z,6.10
2024-02-29T07:43:42.543Z,6.10
2024-02-29T07:44:44.548Z,6.30
2024-02-29T07:45:47.434Z,6.30
2024-02-29T07:46:49.473Z,6.50
2024-02-29T07:47:52.428Z,6.50
2024-02-29T07:48:54.440Z,6.60
2024-02-29T07:49:57.381Z,6.70
2024-02-29T07:51:01.598Z,6.80
2024-02-29T07:52:05.659Z,6.80
2024-02-29T07:53:07.810Z,6.90
2024-02-29T07:54:11.181Z,6.90
2024-02-29T07:55:15.441Z,6.90
2024-02-29T07:56:19.136Z,7.00
2024-02-29T07:57:21.078Z,6.90
2024-02-29T07:58:24.084Z,7.00
2024-02-29T07:59:26.776Z,7.00
2024-02-29T08:00:29.814Z,7.00
2024-02-29T08:01:31.895Z,7.10
2024-02-29T08:02:34.814Z,7.10
2024-02-29T08:03:38.134Z,7.10
2024-02-29T08:04:41.270Z,7.10
2024-02-29T08:05:43.389Z,7.10
2024-02-29T08:06:47.672Z,7.20
2024-02-29T08:07:49.868Z,7.20
2024-02-29T08:08:52.814Z,7.20
2024-02-29T08:09:54.864Z,7.30
2024-02-29T08:10:57.798Z,7.30
2024-02-29T08:11:59.925Z,7.40
2024-02-29T08:13:03.475Z,7.40
2024-02-29T08:14:05.778Z,7.40
2024-02-29T08:15:09.250Z,7.40
2024-02-29T08:16:11.445Z,7.40
2024-02-29T08:17:14.364Z,7.40
2024-02-29T08:18:16.413Z,7.40
2024-02-29T08:19:19.437Z,7.40
2024-02-29T08:20:21.767Z,7.50
2024-02-29T08:21:24.890Z,7.50
2024-02-29T08:22:28.300Z,7.50
2024-02-29T08:23:31.276Z,7.50
2024-02-29T08:24:33.184Z,7.60
2024-02-29T08:25:36.132Z,7.60
2024-02-29T08:26:38.091Z,7.60
2024-02-29T08:27:40.997Z,7.70
2024-02-29T08:28:44.424Z,7.80
2024-02-29T08:29:47.438Z,7.80
2024-02-29T08:30:49.526Z,7.80
2024-02-29T08:31:52.733Z,7.90
2024-02-29T08:32:54.760Z,7.90
2024-02-29T08:33:58.106Z,7.90
2024-02-29T08:35:00.118Z,7.90
2024-02-29T08:36:03.649Z,8.00
2024-02-29T08:37:05.702Z,7.90
2024-02-29T08:38:09.974Z,7.90
2024-02-29T08:39:12.076Z,7.80
2024-02-29T08:40:15.559Z,7.80
2024-02-29T08:41:17.742Z,7.80
2024-02-29T08:42:20.663Z,7.80
2024-02-29T08:43:22.798Z,7.70
2024-02-29T08:44:25.952Z,7.70
2024-02-29T08:45:27.936Z,7.70
2024-02-29T08:46:30.868Z,7.70
2024-02-29T08:47:32.881Z,7.60
2024-02-29T08:48:35.870Z,7.70
2024-02-29T08:49:37.923Z,7.70
2024-02-29T08:50:40.053Z,7.80
2024-02-29T08:51:42.992Z,7.80
2024-02-29T08:52:44.985Z,7.80
2024-02-29T08:53:49.260Z,7.80
2024-02-29T08:54:51.254Z,8.00
2024-02-29T08:55:53.277Z,8.00
2024-02-29T08:56:57.164Z,8.10
2024-02-29T08:57:59.501Z,8.20
2024-02-29T08:59:02.463Z,8.20
2024-02-29T09:00:04.822Z,8.30
2024-02-29T09:01:09.137Z,8.30
2024-02-29T09:02:11.333Z,8.40
2024-02-29T09:03:15.599Z,8.40
2024-02-29T09:04:17.920Z,8.50
2024-02-29T09:05:20.081Z,8.60
2024-02-29T09:06:22.959Z,8.60
2024-02-29T09:07:25.295Z,8.60
2024-02-29T09:08:28.268Z,8.70
2024-02-29T09:09:31.653Z,8.80
2024-02-29T09:10:34.569Z,8.90
2024-02-29T09:11:36.546Z,8.90
2024-02-29T09:12:39.501Z,8.80
2024-02-29T09:13:41.616Z,8.90
2024-02-29T09:14:43.677Z,8.90
2024-02-29T09:15:46.651Z,9.00
2024-02-29T09:16:48.601Z,9.00
2024-02-29T09:17:52.276Z,9.10
2024-02-29T09:18:54.302Z,9.20
2024-02-29T09:19:56.793Z,9.30
2024-02-29T09:20:59.686Z,9.40
2024-02-29T09:22:01.691Z,9.50
2024-02-29T09:23:05.257Z,9.60
2024-02-29T09:24:07.213Z,9.50
2024-02-29T09:25:11.896Z,9.60
2024-02-29T09:26:17.636Z,9.70
2024-02-29T09:27:21.776Z,9.70
2024-02-29T09:28:23.715Z,9.90
2024-02-29T09:29:27.556Z,10.10
2024-02-29T09:30:30.434Z,10.20
2024-02-29T09:31:32.641Z,10.30
2024-02-29T09:32:35.572Z,10.50
2024-02-29T09:33:38.335Z,10.60
2024-02-29T09:34:46.030Z,10.70
2024-02-29T09:35:56.904Z,10.70
2024-02-29T09:37:00.581Z,10.80
2024-02-29T09:38:02.490Z,11.00
2024-02-29T09:39:06.532Z,11.10
2024-02-29T09:40:11.258Z,11.30
2024-02-29T09:41:31.904Z,11.60
2024-02-29T09:42:37.597Z,11.80
2024-02-29T09:43:41.371Z,11.90
2024-02-29T09:44:44.407Z,12.10
2024-02-29T09:45:49.646Z,12.20
2024-02-29T09:46:51.886Z,12.30
2024-02-29T09:47:55.399Z,12.40
2024-02-29T09:48:58.780Z,12.50
2024-02-29T09:50:05.300Z,12.60
2024-02-29T09:51:11.828Z,12.60
2024-02-29T09:52:15.760Z,12.60
2024-02-29T09:53:19.499Z,12.60
2024-02-29T09:54:23.793Z,12.50
2024-02-29T09:55:29.090Z,12.40
2024-02-29T09:56:32.408Z,12.40
2024-02-29T09:57:35.161Z,12.40
2024-02-29T09:58:38.283Z,12.50
2024-02-29T09:59:42.501Z,12.50
2024-02-29T10:00:45.536Z,12.50
2024-02-29T10:01:49.754Z,12.60
2024-02-29T10:02:55.689Z,12.60
2024-02-29T10:03:59.741Z,12.70
2024-02-29T10:05:02.942Z,12.80
2024-02-29T10:06:06.435Z,12.90
2024-02-29T10:07:09.361Z,13.00
2024-02-29T10:08:11.279Z,13.10
2024-02-29T10:09:14.158Z,13.20
2024-02-29T10:10:17.828Z,13.30
2024-02-29T10:11:22.914Z,13.40
2024-02-29T10:12:24.990Z,13.40
2024-02-29T10:13:36.312Z,13.40
2024-02-29T10:14:39.187Z,13.40
2024-02-29T10:15:42.414Z,13.40
2024-02-29T10:16:44.597Z,13.40
2024-02-29T10:17:47.632Z,13.50
2024-02-29T10:18:50.855Z,13.50
2024-02-29T10:19:54.089Z,13.60
2024-02-29T10:20:56.062Z,13.70
2024-02-29T10:21:59.373Z,13.70
2024-02-29T10:23:01.341Z,13.70
2024-02-29T10:24:04.539Z,13.70
2024-02-29T10:25:11.440Z,13.70
2024-02-29T10:26:14.478Z,13.70
2024-02-29T10:27:18.294Z,13.60
2024-02-29T10:28:21.522Z,13.60
2024-02-29T10:29:25.964Z,13.70
2024-02-29T10:30:29.858Z,13.70
2024-02-29T10:31:31.882Z,13.80
2024-02-29T10:32:34.832Z,13.90
2024-02-29T10:33:39.517Z,13.80
2024-02-29T10:34:42.968Z,13.80
2024-02-29T10:35:44.933Z,13.80
2024-02-29T10:36:48.350Z,13.80
2024-02-29T10:37:51.659Z,13.90
2024-02-29T10:38:56.229Z,13.90
2024-02-29T10:39:58.206Z,14.00
2024-02-29T10:41:02.038Z,13.90
2024-02-29T10:42:04.800Z,14.00
2024-02-29T10:43:10.961Z,13.90
2024-02-29T10:44:13.284Z,13.90
2024-02-29T10:45:17.013Z,13.90
2024-02-29T10:46:20.083Z,14.00
2024-02-29T10:47:24.862Z,14.00
2024-02-29T10:48:30.479Z,14.10
2024-02-29T10:49:37.148Z,14.30
2024-02-29T10:50:41.639Z,14.40
2024-02-29T10:51:45.300Z,14.40
2024-02-29T10:52:49.372Z,14.40
2024-02-29T10:53:59.541Z,14.30
2024-02-29T10:55:06.942Z,14.30
2024-02-29T10:56:19.781Z,14.30
2024-02-29T10:57:24.415Z,14.40
2024-02-29T10:58:32.748Z,14.50
2024-02-29T10:59:37.764Z,14.50
2024-02-29T11:00:42.651Z,14.70
2024-02-29T11:01:45.027Z,14.90
2024-02-29T11:02:47.978Z,14.90
2024-02-29T11:03:50.117Z,15.00
2024-02-29T11:04:54.061Z,15.00
2024-02-29T11:05:56.635Z,14.90
2024-02-29T11:06:59.727Z,14.90
2024-02-29T11:08:03.285Z,14.90
2024-02-29T11:09:09.658Z,15.00
2024-02-29T11:10:11.740Z,15.00
2024-02-29T11:11:16.140Z,15.10
2024-02-29T11:12:19.167Z,15.10
2024-02-29T11:13:22.517Z,15.10
2024-02-29T11:14:25.967Z,15.10
2024-02-29T11:15:29.241Z,15.20
2024-02-29T11:16:31.825Z,15.30
2024-02-29T11:17:34.856Z,15.30
2024-02-29T11:18:39.211Z,15.20
2024-02-29T11:19:48.125Z,15.20
2024-02-29T11:21:04.154Z,15.20
2024-02-29T11:22:11.101Z,15.20
2024-02-29T11:23:13.221Z,15.10
2024-02-29T11:24:19.642Z,15.10
2024-02-29T11:25:22.353Z,15.10
2024-02-29T11:26:28.808Z,15.10
2024-02-29T11:27:31.561Z,15.10
2024-02-29T11:28:35.302Z,15.10
2024-02-29T11:29:38.764Z,15.10
2024-02-29T11:30:44.039Z,15.00
2024-02-29T11:31:48.537Z,15.00
2024-02-29T11:32:52.368Z,15.00
2024-02-29T11:33:55.224Z,14.90
2024-02-29T11:34:58.660Z,15.00
2024-02-29T11:36:00.621Z,15.00
2024-02-29T11:37:06.919Z,15.10
2024-02-29T11:38:10.266Z,15.00
2024-02-29T11:39:15.527Z,14.90
2024-02-29T11:40:17.729Z,14.80
2024-02-29T11:41:20.342Z,14.70
2024-02-29T11:42:24.038Z,14.60
2024-02-29T11:43:26.397Z,14.60
2024-02-29T11:44:29.422Z,14.60
2024-02-29T11:45:32.707Z,14.50
2024-02-29T11:46:34.748Z,14.50
2024-02-29T11:47:40.293Z,14.50
2024-02-29T11:48:42.796Z,14.50
2024-02-29T11:49:45.873Z,14.60
2024-02-29T11:50:47.784Z,14.60
2024-02-29T11:51:52.206Z,14.70
2024-02-29T11:52:57.422Z,14.80
2024-02-29T11:54:00.461Z,14.90
2024-02-29T11:55:02.639Z,14.90
2024-02-29T11:56:14.501Z,14.90
2024-02-29T11:57:18.253Z,14.80
2024-02-29T11:58:23.012Z,14.80
2024-02-29T11:59:25.054Z,14.60
2024-02-29T12:00:29.366Z,14.60
2024-02-29T12:01:32.770Z,14.60
2024-02-29T12:02:36.566Z,14.60
2024-02-29T12:03:38.503Z,14.60
2024-02-29T12:04:41.389Z,14.50
2024-02-29T12:05:43.856Z,14.40
2024-02-29T12:06:48.202Z,14.30
2024-02-29T12:07:50.369Z,14.30
2024-02-29T12:08:53.058Z,14.30
2024-02-29T12:09:56.419Z,14.20
2024-02-29T12:10:59.439Z,14.10
2024-02-29T12:12:02.598Z,14.00
2024-02-29T12:13:05.052Z,13.90
2024-02-29T12:14:09.024Z,13.90
2024-02-29T12:15:11.885Z,13.90
2024-02-29T12:16:15.369Z,14.00
2024-02-29T12:17:19.996Z,14.00
2024-02-29T12:18:23.405Z,14.10
2024-02-29T12:19:25.925Z,14.10
2024-02-29T12:20:28.218Z,14.20
2024-02-29T12:21:31.161Z,14.30
2024-02-29T12:22:33.448Z,14.30
2024-02-29T12:23:35.540Z,14.30
2024-02-29T12:24:39.589Z,14.40
2024-02-29T12:25:43.888Z,14.40
2024-02-29T12:26:49.347Z,14.40
2024-02-29T12:27:51.294Z,14.30
2024-02-29T12:28:54.223Z,14.30
2024-02-29T12:29:56.205Z,14.30
2024-02-29T12:30:59.315Z,14.30
2024-02-29T12:32:01.515Z,14.30
2024-02-29T12:33:06.496Z,14.40
2024-02-29T12:34:08.660Z,14.40
2024-02-29T12:35:12.553Z,14.50
2024-02-29T12:36:17.277Z,14.40
2024-02-29T12:37:19.950Z,14.40
2024-02-29T12:38:24.914Z,14.30
2024-02-29T12:39:26.977Z,14.20
2024-02-29T12:40:31.399Z,14.30
2024-02-29T12:41:33.404Z,14.30
2024-02-29T12:42:36.483Z,14.30
2024-02-29T12:43:39.828Z,14.30
2024-02-29T12:44:42.744Z,14.30
2024-02-29T12:45:44.932Z,14.30
2024-02-29T12:46:52.985Z,14.30
2024-02-29T12:47:55.386Z,14.30
2024-02-29T12:48:59.732Z,14.40
2024-02-29T12:50:01.717Z,14.30
2024-02-29T12:51:04.855Z,14.20
2024-02-29T12:52:06.797Z,14.10
2024-02-29T12:53:09.781Z,14.00
2024-02-29T12:54:12.142Z,14.00
2024-02-29T12:55:15.590Z,14.10
2024-02-29T12:56:17.986Z,14.10
2024-02-29T12:57:21.004Z,14.00
2024-02-29T12:58:23.136Z,13.90
2024-02-29T12:59:27.711Z,13.70
2024-02-29T13:00:29.720Z,13.60
2024-02-29T13:01:32.795Z,13.50
2024-02-29T13:02:34.963Z,13.50
2024-02-29T13:03:38.294Z,13.50
2024-02-29T13:04:41.635Z,13.50
2024-02-29T13:05:45.522Z,13.50
2024-02-29T13:06:47.700Z,13.50
2024-02-29T13:07:50.633Z,13.50
2024-02-29T13:08:52.869Z,13.50
2024-02-29T13:09:55.893Z,13.50
2024-02-29T13:10:57.930Z,13.40
2024-02-29T13:12:00.828Z,13.30
2024-02-29T13:13:10.110Z,13.10
2024-02-29T13:14:13.934Z,13.00
2024-02-29T13:15:16.032Z,13.00
2024-02-29T13:16:19.230Z,12.80
2024-02-29T13:17:21.309Z,12.80
2024-02-29T13:18:24.264Z,12.80
2024-02-29T13:19:26.248Z,12.80
2024-02-29T13:20:30.669Z,12.80
2024-02-29T13:21:32.612Z,12.90
2024-02-29T13:22:35.768Z,13.00
2024-02-29T13:23:37.685Z,13.00
2024-02-29T13:24:40.681Z,13.10
2024-02-29T13:25:42.763Z,13.20
2024-02-29T13:26:45.900Z,13.30
2024-02-29T13:27:47.868Z,13.50
2024-02-29T13:28:50.773Z,13.60
2024-02-29T13:29:52.805Z,13.80
2024-02-29T13:30:55.790Z,14.00
2024-02-29T13:31:57.703Z,14.30
2024-02-29T13:33:00.657Z,14.50
2024-02-29T13:34:04.322Z,14.60
2024-02-29T13:35:06.809Z,14.80
2024-02-29T13:36:11.137Z,14.90
2024-02-29T13:37:13.538Z,15.00
2024-02-29T13:38:16.545Z,15.10
2024-02-29T13:39:18.615Z,15.30
2024-02-29T13:40:22.611Z,15.30
2024-02-29T13:41:24.592Z,15.50
2024-02-29T13:42:27.471Z,15.50
2024-02-29T13:43:29.453Z,15.60
2024-02-29T13:44:32.444Z,15.70
2024-02-29T13:45:37.050Z,15.70
2024-02-29T13:46:39.941Z,15.80
2024-02-29T13:47:46.902Z,16.00
2024-02-29T13:48:49.869Z,16.10
2024-02-29T13:49:51.838Z,16.20
2024-02-29T13:50:54.863Z,16.20
2024-02-29T13:51:58.298Z,16.30